Time;durP1;ratioP1;P1;durP2;ratioP2;P2;SDS_P1;SDS_P2;PMS_P1;PMS_P2;Temp;Humidity;BMP_temperature;BMP_pressure;BME280_temperature;BME280_humidity;BME280_pressure;Samples;Min_cycle;Max_cycle;Signal;HPM_P1;HPM_P2
2023/01/06 00:00:06;;;;;;;30.33;13.38;;;;;;;8.95;100.00;101727.63;5053857;28;20473;-47
2023/01/06 00:02:31;;;;;;;33.92;13.93;;;;;;;8.96;100.00;101726.81;5053725;28;20052;-47
2023/01/06 00:04:56;;;;;;;38.90;13.38;;;;;;;8.95;100.00;101719.91;5053378;28;20045;-48
2023/01/06 00:07:22;;;;;;;35.65;14.38;;;;;;;8.96;100.00;101708.81;5053664;28;20029;-48
2023/01/06 00:09:47;;;;;;;27.45;13.52;;;;;;;8.96;100.00;101713.97;5053597;28;20029;-47
2023/01/06 00:12:12;;;;;;;33.15;13.88;;;;;;;8.99;100.00;101715.00;5053563;28;20040;-47
2023/01/06 00:14:37;;;;;;;32.45;13.15;;;;;;;8.99;100.00;101709.88;5053599;28;20025;-47
2023/01/06 00:17:03;;;;;;;32.50;13.63;;;;;;;9.00;100.00;101705.59;5054021;28;20090;-45
2023/01/06 00:19:28;;;;;;;34.78;13.88;;;;;;;8.99;100.00;101702.16;5053019;28;20404;-47
2023/01/06 00:21:53;;;;;;;34.60;13.02;;;;;;;9.01;100.00;101697.06;5053440;28;20472;-48
2023/01/06 00:24:18;;;;;;;31.00;13.20;;;;;;;9.02;100.00;101698.84;5053933;28;20029;-46
2023/01/06 00:26:44;;;;;;;30.00;13.73;;;;;;;9.06;100.00;101705.91;5052865;28;20112;-47
2023/01/06 00:29:09;;;;;;;28.25;12.30;;;;;;;9.06;100.00;101700.75;5053454;28;20021;-47
2023/01/06 00:31:36;;;;;;;31.50;12.20;;;;;;;9.07;100.00;101697.38;5052862;28;20016;-47
2023/01/06 00:34:02;;;;;;;29.92;11.32;;;;;;;9.10;100.00;101691.50;5053346;28;20032;-44
2023/01/06 00:36:27;;;;;;;23.63;10.63;;;;;;;9.12;100.00;101695.91;5053082;28;20025;-45
2023/01/06 00:38:53;;;;;;;27.52;10.45;;;;;;;9.14;100.00;101691.75;5053072;28;20056;-47
2023/01/06 00:44:02;;;;;;;21.35;8.20;;;;;;;9.13;100.00;101692.56;5053714;28;20044;-46
2023/01/06 00:46:29;;;;;;;18.05;8.60;;;;;;;9.14;100.00;101693.41;5052593;28;20025;-47
2023/01/06 00:48:59;;;;;;;12.95;6.68;;;;;;;9.18;100.00;101691.09;5052943;28;20039;-47
2023/01/06 00:51:24;;;;;;;21.17;7.47;;;;;;;9.18;100.00;101695.31;5053455;28;20025;-47
2023/01/06 00:53:50;;;;;;;19.02;7.03;;;;;;;9.17;100.00;101691.03;5052357;28;20055;-44
2023/01/06 00:56:15;;;;;;;19.88;7.63;;;;;;;9.17;100.00;101699.59;5053098;28;20029;-48
2023/01/06 00:58:40;;;;;;;20.02;7.10;;;;;;;9.16;100.00;101692.69;5052832;28;20115;-48
2023/01/06 01:01:07;;;;;;;16.40;7.25;;;;;;;9.18;100.00;101700.47;5052572;28;20074;-47
2023/01/06 01:03:34;;;;;;;16.52;6.45;;;;;;;9.17;100.00;101694.47;5052334;28;20071;-47
2023/01/06 01:06:05;;;;;;;23.83;8.10;;;;;;;9.15;100.00;101703.78;5053285;28;20021;-47
2023/01/06 01:08:31;;;;;;;15.20;7.13;;;;;;;9.15;100.00;101690.91;5052291;28;20052;-48
2023/01/06 01:12:08;;;;;;;18.70;7.45;;;;;;;9.17;100.00;101691.03;5052978;28;20061;-47
2023/01/06 01:13:59;;;;;;;19.15;7.53;;;;;;;9.16;100.00;101677.25;5052300;28;20036;-48
2023/01/06 01:16:25;;;;;;;17.50;7.72;;;;;;;9.17;100.00;101688.44;5052872;28;20032;-49
2023/01/06 01:18:50;;;;;;;18.17;7.18;;;;;;;9.17;100.00;101676.47;5052772;28;20029;-47
2023/01/06 01:21:15;;;;;;;21.73;8.13;;;;;;;9.17;100.00;101691.88;5052465;28;20021;-47
2023/01/06 01:23:40;;;;;;;15.98;7.00;;;;;;;9.19;100.00;101691.94;5052367;28;20117;-47
2023/01/06 01:26:06;;;;;;;22.00;7.22;;;;;;;9.15;100.00;101693.50;5052732;28;20053;-48
2023/01/06 01:28:32;;;;;;;16.83;7.68;;;;;;;9.15;100.00;101690.91;5051813;28;20036;-47
2023/01/06 01:31:01;;;;;;;19.67;8.13;;;;;;;9.14;100.00;101693.41;5052513;28;20031;-49
2023/01/06 01:33:30;;;;;;;14.77;7.00;;;;;;;9.15;100.00;101678.06;5052623;28;20083;-48
2023/01/06 01:35:56;;;;;;;16.88;7.50;;;;;;;9.15;100.00;101679.75;5052096;28;20534;-48
2023/01/06 01:38:21;;;;;;;18.08;7.50;;;;;;;9.15;100.00;101678.06;5054384;28;20029;-46
2023/01/06 01:40:48;;;;;;;24.35;7.90;;;;;;;9.15;100.00;101665.19;5056617;28;20025;-47
2023/01/06 01:43:14;;;;;;;17.67;6.80;;;;;;;9.13;100.00;101653.97;5056228;28;20017;-48
2023/01/06 01:45:41;;;;;;;22.20;7.43;;;;;;;9.13;100.00;101656.53;5056365;28;20025;-48
2023/01/06 01:48:16;;;;;;;20.23;6.50;;;;;;;9.13;100.00;101659.13;5056783;28;20148;-49
2023/01/06 01:50:46;;;;;;;16.25;6.20;;;;;;;9.12;100.00;101654.78;5055933;28;20116;-47
2023/01/06 01:53:21;;;;;;;16.70;5.70;;;;;;;9.14;100.00;101653.19;5056358;28;20033;-48
2023/01/06 01:55:49;;;;;;;17.88;5.95;;;;;;;9.14;100.00;101647.13;5056381;28;20451;-47
2023/01/06 01:58:43;;;;;;;17.25;5.25;;;;;;;9.14;100.00;101652.28;5056314;28;20124;-48
2023/01/06 02:01:10;;;;;;;16.58;5.30;;;;;;;9.14;100.00;101642.88;5056061;28;20048;-48
2023/01/06 02:03:39;;;;;;;17.00;4.50;;;;;;;9.13;100.00;101650.50;5055576;28;20449;-48
2023/01/06 02:06:11;;;;;;;18.65;4.85;;;;;;;9.12;100.00;101644.50;5055976;28;20759;-47
2023/01/06 02:09:09;;;;;;;15.13;5.05;;;;;;;9.13;100.00;101642.78;5056164;28;20045;-48
2023/01/06 02:11:36;;;;;;;15.15;4.90;;;;;;;9.11;100.00;101642.72;5055539;28;20124;-47
2023/01/06 02:14:22;;;;;;;14.93;5.10;;;;;;;9.14;100.00;101640.31;5055928;28;20535;-47
2023/01/06 02:17:00;;;;;;;19.25;5.00;;;;;;;9.14;100.00;101641.97;5055859;28;20484;-48
2023/01/06 02:19:57;;;;;;;14.48;4.53;;;;;;;9.16;100.00;101651.53;5056108;28;20029;-44
2023/01/06 02:22:34;;;;;;;8.52;4.13;;;;;;;9.14;100.00;101642.88;5056148;28;20021;-48
2023/01/06 02:25:24;;;;;;;13.57;4.13;;;;;;;9.16;100.00;101641.25;5055730;28;20090;-48
2023/01/06 02:28:29;;;;;;;15.38;4.57;;;;;;;9.17;100.00;101650.72;5055407;28;20036;-47
2023/01/06 02:31:25;;;;;;;14.98;4.78;;;;;;;9.16;100.00;101638.69;5055800;28;20112;-48
2023/01/06 02:34:20;;;;;;;15.63;3.95;;;;;;;9.18;100.00;101624.22;5055481;28;20102;-48
2023/01/06 02:37:05;;;;;;;16.63;4.45;;;;;;;9.18;100.00;101619.06;5055664;28;20044;-47
2023/01/06 02:40:10;;;;;;;14.02;3.47;;;;;;;9.21;100.00;101621.78;5054930;28;20024;-46
2023/01/06 02:43:01;;;;;;;11.63;3.60;;;;;;;9.22;100.00;101605.53;5055298;28;20028;-48
2023/01/06 02:45:51;;;;;;;13.02;3.20;;;;;;;9.19;100.00;101604.50;5055127;28;20049;-48
2023/01/06 02:48:39;;;;;;;11.70;3.10;;;;;;;9.18;100.00;101608.78;5055095;28;20384;-48
2023/01/06 02:51:38;;;;;;;9.45;3.13;;;;;;;9.18;100.00;101598.50;5054752;28;20468;-47
2023/01/06 02:54:06;;;;;;;9.38;3.22;;;;;;;9.18;100.00;101588.22;5054861;28;20098;-44
2023/01/06 02:56:38;;;;;;;11.57;3.50;;;;;;;9.20;100.00;101585.69;5055095;28;20025;-47
2023/01/06 02:59:19;;;;;;;11.88;3.13;;;;;;;9.20;100.00;101586.56;5055588;28;20028;-45
2023/01/06 03:01:48;;;;;;;14.65;3.28;;;;;;;9.19;100.00;101600.25;5054844;28;20033;-44
2023/01/06 03:04:17;;;;;;;16.45;3.03;;;;;;;9.20;100.00;101596.00;5055080;28;20049;-46
2023/01/06 03:06:47;;;;;;;10.73;3.03;;;;;;;9.19;100.00;101578.78;5054855;28;20029;-47
2023/01/06 03:09:15;;;;;;;12.00;3.25;;;;;;;9.20;100.00;101581.44;5054995;28;20064;-46
2023/01/06 03:11:43;;;;;;;14.07;3.17;;;;;;;9.20;100.00;101585.69;5055055;28;20036;-47
2023/01/06 03:14:17;;;;;;;12.95;2.90;;;;;;;9.21;100.00;101585.78;5054758;28;20029;-48
2023/01/06 03:16:43;;;;;;;9.93;2.75;;;;;;;9.23;100.00;101576.44;5054526;28;20091;-47
2023/01/06 03:19:09;;;;;;;7.70;2.90;;;;;;;9.23;100.00;101571.31;5054988;28;21190;-46
2023/01/06 03:21:40;;;;;;;13.75;3.55;;;;;;;9.24;100.00;101577.31;5054220;28;20025;-47
2023/01/06 03:24:07;;;;;;;17.17;2.90;;;;;;;9.26;100.00;101570.56;5054853;28;20033;-47
2023/01/06 03:26:34;;;;;;;9.25;2.97;;;;;;;9.25;100.00;101567.94;5054628;28;20033;-48
2023/01/06 03:29:00;;;;;;;11.02;3.08;;;;;;;9.23;100.00;101571.31;5054277;28;20036;-46
2023/01/06 03:31:44;;;;;;;11.75;3.10;;;;;;;9.26;100.00;101569.66;5054421;28;20369;-47
2023/01/06 03:34:21;;;;;;;11.55;3.10;;;;;;;9.27;100.00;101567.19;5054892;28;20029;-47
2023/01/06 03:37:04;;;;;;;12.20;3.15;;;;;;;9.30;100.00;101571.59;5054362;28;20083;-47
2023/01/06 03:39:37;;;;;;;11.38;3.10;;;;;;;9.26;100.00;101556.81;5054526;28;20025;-47
2023/01/06 03:45:13;;;;;;;8.35;3.20;;;;;;;9.23;100.00;101545.59;5054799;28;20494;-48
2023/01/06 03:47:51;;;;;;;10.32;3.03;;;;;;;9.25;100.00;101547.34;5054161;28;20040;-48
2023/01/06 03:50:34;;;;;;;11.23;2.88;;;;;;;9.26;100.00;101559.38;5053838;28;20071;-47
2023/01/06 03:53:12;;;;;;;10.88;2.78;;;;;;;9.26;100.00;101559.38;5054550;28;20029;-48
2023/01/06 03:55:41;;;;;;;12.85;3.17;;;;;;;9.26;100.00;101546.50;5053450;28;20021;-48
2023/01/06 03:58:09;;;;;;;12.50;3.33;;;;;;;9.26;100.00;101547.41;5054075;28;20029;-47
2023/01/06 04:00:36;;;;;;;;;;;;;;;9.32;100.00;101545.13;5054131;28;20021;-47
2023/01/06 04:03:06;;;;;;;11.23;2.90;;;;;;;9.30;100.00;101540.72;5053394;28;19920;-46
2023/01/06 04:05:31;;;;;;;14.77;3.17;;;;;;;9.32;100.00;101533.94;5053839;28;20125;-47
2023/01/06 04:07:57;;;;;;;13.63;3.20;;;;;;;9.31;100.00;101538.22;5054410;28;20029;-44
2023/01/06 04:10:22;;;;;;;15.38;3.28;;;;;;;9.31;100.00;101527.03;5053749;28;20061;-46
2023/01/06 04:12:48;;;;;;;10.98;3.45;;;;;;;9.30;100.00;101523.59;5053451;28;20437;-47
2023/01/06 04:15:17;;;;;;;12.80;2.92;;;;;;;9.29;100.00;101519.25;5053850;28;20044;-48
2023/01/06 04:17:43;;;;;;;10.95;2.90;;;;;;;9.31;100.00;101524.44;5053262;28;20029;-47
2023/01/06 04:20:12;;;;;;;9.68;3.13;;;;;;;9.34;100.00;101515.19;5053861;28;20033;-47
2023/01/06 04:22:38;;;;;;;11.98;3.45;;;;;;;9.34;100.00;101511.75;5053547;28;20146;-48
2023/01/06 04:25:04;;;;;;;11.93;3.00;;;;;;;9.34;100.00;101504.03;5053255;28;20112;-47
2023/01/06 04:27:29;;;;;;;9.70;2.78;;;;;;;9.38;100.00;101490.50;5052924;28;20087;-46
2023/01/06 04:29:54;;;;;;;11.18;2.72;;;;;;;9.38;100.00;101505.94;5053597;28;20028;-47
2023/01/06 04:32:19;;;;;;;8.07;2.85;;;;;;;9.39;100.00;101499.97;5053316;28;20139;-47
2023/01/06 04:34:45;;;;;;;10.00;2.70;;;;;;;9.37;100.00;101491.28;5053311;28;20518;-48
2023/01/06 04:37:10;;;;;;;10.05;2.72;;;;;;;9.38;100.00;101485.34;5053403;28;20499;-48
2023/01/06 04:39:36;;;;;;;11.63;2.92;;;;;;;9.38;100.00;101480.19;5052512;28;20021;-47
2023/01/06 04:42:01;;;;;;;10.23;2.63;;;;;;;9.37;100.00;101473.28;5053351;28;20033;-47
2023/01/06 04:44:26;;;;;;;7.22;2.45;;;;;;;9.37;100.00;101473.28;5053403;28;20036;-47
2023/01/06 04:46:51;;;;;;;5.93;2.65;;;;;;;9.35;100.00;101465.50;5052520;28;20029;-43
2023/01/06 04:49:17;;;;;;;11.10;2.90;;;;;;;9.38;100.00;101477.63;5053074;28;20052;-48
2023/01/06 04:51:42;;;;;;;7.30;2.40;;;;;;;9.38;100.00;101472.47;5052514;28;20025;-48
2023/01/06 04:54:07;;;;;;;6.40;2.05;;;;;;;9.36;100.00;101469.84;5053017;28;20041;-47
2023/01/06 04:56:33;;;;;;;11.63;2.92;;;;;;;9.36;100.00;101471.53;5053158;28;20472;-45
2023/01/06 04:58:58;;;;;;;8.95;2.25;;;;;;;9.38;100.00;101467.34;5052770;28;20033;-47
2023/01/06 05:01:24;;;;;;;8.77;2.40;;;;;;;9.39;100.00;101469.09;5053082;28;20028;-47
2023/01/06 05:03:50;;;;;;;7.80;2.08;;;;;;;9.40;100.00;101470.88;5052745;28;20045;-47
2023/01/06 05:06:16;;;;;;;7.00;2.42;;;;;;;9.43;100.00;101467.56;5052617;28;20023;-48
2023/01/06 05:08:43;;;;;;;8.63;2.33;;;;;;;9.43;100.00;101464.97;5052474;28;20431;-48
2023/01/06 05:11:20;;;;;;;9.13;2.20;;;;;;;9.43;100.00;101459.84;5052949;28;20017;-48
2023/01/06 05:13:45;;;;;;;8.80;2.25;;;;;;;9.41;100.00;101446.88;5051367;28;20418;-48
2023/01/06 05:16:23;;;;;;;6.65;2.10;;;;;;;9.43;100.00;101449.53;5052595;28;20021;-48
2023/01/06 05:18:48;;;;;;;5.68;2.03;;;;;;;9.43;100.00;101455.56;5052877;28;20143;-47
2023/01/06 05:21:13;;;;;;;7.70;2.00;;;;;;;9.41;100.00;101454.59;5052416;28;20100;-47
2023/01/06 05:23:39;;;;;;;6.00;2.10;;;;;;;9.41;100.00;101444.31;5052254;28;20016;-47
2023/01/06 05:26:05;;;;;;;6.60;2.10;;;;;;;9.40;100.00;101447.72;5052970;28;20107;-47
2023/01/06 05:28:31;;;;;;;7.90;2.20;;;;;;;9.39;100.00;101444.25;5051825;28;20033;-46
2023/01/06 05:31:01;;;;;;;9.20;2.10;;;;;;;9.40;100.00;101450.28;5052778;28;20127;-47
2023/01/06 05:33:26;;;;;;;7.57;2.22;;;;;;;9.40;100.00;101445.16;5052919;28;20021;-48
2023/01/06 05:36:09;;;;;;;8.45;2.10;;;;;;;9.40;100.00;101460.59;5051784;28;20036;-46
2023/01/06 05:38:34;;;;;;;6.72;1.92;;;;;;;9.39;100.00;101453.66;5052332;28;20380;-46
2023/01/06 05:41:00;;;;;;;9.18;2.83;;;;;;;9.40;100.00;101452.88;5052271;28;20025;-48
2023/01/06 05:43:26;;;;;;;6.55;2.30;;;;;;;9.40;100.00;101460.59;5052476;28;20112;-47
2023/01/06 05:45:52;;;;;;;6.88;2.45;;;;;;;9.39;100.00;101453.66;5052336;28;20025;-46
2023/01/06 05:48:18;;;;;;;9.88;2.30;;;;;;;9.41;100.00;101449.44;5052125;28;20071;-47
2023/01/06 05:50:43;;;;;;;11.75;2.30;;;;;;;9.41;100.00;101461.44;5052042;28;20109;-44
2023/01/06 05:53:08;;;;;;;8.15;2.28;;;;;;;9.43;100.00;101455.56;5052502;28;20056;-48
2023/01/06 05:55:34;;;;;;;6.90;2.40;;;;;;;9.44;100.00;101449.59;5051872;28;20036;-48
2023/01/06 05:57:59;;;;;;;12.85;2.55;;;;;;;9.44;100.00;101452.19;5052478;28;20055;-48
2023/01/06 06:00:24;;;;;;;9.13;2.40;;;;;;;9.49;100.00;101455.84;5052511;28;20423;-47
2023/01/06 06:02:50;;;;;;;7.78;2.50;;;;;;;9.48;100.00;101455.78;5051733;28;20032;-47
2023/01/06 06:05:15;;;;;;;6.47;2.40;;;;;;;9.46;100.00;101460.81;5052045;28;20128;-46
2023/01/06 06:07:40;;;;;;;8.20;2.55;;;;;;;9.44;100.00;101462.47;5052033;28;20370;-47
2023/01/06 06:10:07;;;;;;;5.85;2.30;;;;;;;9.39;100.00;101469.09;5052069;28;20049;-47
2023/01/06 06:12:32;;;;;;;9.32;2.80;;;;;;;9.30;100.00;101459.28;5051967;28;20457;-44
2023/01/06 06:14:58;;;;;;;9.32;2.47;;;;;;;9.20;100.00;101460.53;5052354;28;20476;-46
2023/01/06 06:17:24;;;;;;;6.90;2.67;;;;;;;9.18;100.00;101454.47;5051824;28;20055;-48
2023/01/06 06:19:49;;;;;;;7.72;2.90;;;;;;;9.13;100.00;101461.09;5051974;28;20021;-48
2023/01/06 06:22:15;;;;;;;7.35;2.78;;;;;;;9.12;100.00;101461.91;5052147;28;20029;-46
2023/01/06 06:24:40;;;;;;;9.25;3.13;;;;;;;9.07;100.00;101466.81;5053997;28;20021;-46
2023/01/06 06:27:05;;;;;;;8.60;2.90;;;;;;;9.12;100.00;101449.03;5055767;28;20016;-45
2023/01/06 06:29:31;;;;;;;7.13;2.78;;;;;;;9.12;100.00;101459.34;5055631;28;20489;-47
2023/01/06 06:31:56;;;;;;;6.57;2.80;;;;;;;9.13;100.00;101460.19;5055219;28;20029;-46
2023/01/06 06:34:21;;;;;;;8.18;2.92;;;;;;;9.12;100.00;101459.34;5055927;28;20074;-47
2023/01/06 06:36:47;;;;;;;6.80;2.58;;;;;;;9.18;100.00;101446.75;5055644;28;20060;-47
2023/01/06 06:39:12;;;;;;;10.55;3.05;;;;;;;9.22;100.00;101451.22;5055142;28;20028;-48
2023/01/06 06:41:37;;;;;;;6.72;2.75;;;;;;;9.23;100.00;101458.13;5055622;28;20032;-48
2023/01/06 06:44:03;;;;;;;8.77;2.97;;;;;;;9.25;100.00;101459.91;5055837;28;20040;-46
2023/01/06 06:46:29;;;;;;;10.70;3.28;;;;;;;9.22;100.00;101452.94;5054650;28;20018;-48
2023/01/06 06:48:54;;;;;;;11.45;3.38;;;;;;;9.21;100.00;101452.03;5055695;28;20029;-47
2023/01/06 06:51:21;;;;;;;10.35;3.38;;;;;;;9.19;100.00;101451.09;5054941;28;20021;-46
2023/01/06 06:53:47;;;;;;;8.70;3.33;;;;;;;9.16;100.00;101455.22;5055209;28;20028;-48
2023/01/06 06:56:14;;;;;;;9.20;3.38;;;;;;;9.12;100.00;101455.91;5055612;28;20035;-46
2023/01/06 06:58:40;;;;;;;7.70;3.58;;;;;;;9.08;100.00;101452.28;5054526;28;20350;-45
2023/01/06 07:01:07;;;;;;;9.63;3.42;;;;;;;9.03;100.00;101470.06;5055122;28;20017;-45
2023/01/06 07:03:32;;;;;;;12.52;3.70;;;;;;;9.00;100.00;101466.47;5054891;28;20087;-47
2023/01/06 07:05:58;;;;;;;8.93;3.58;;;;;;;8.98;100.00;101465.53;5054705;28;20025;-47
2023/01/06 07:08:23;;;;;;;8.68;3.67;;;;;;;8.98;100.00;101465.53;5055110;28;20116;-47
2023/01/06 07:10:50;;;;;;;11.40;3.92;;;;;;;8.98;100.00;101465.53;5055018;28;20104;-45
2023/01/06 07:13:16;;;;;;;8.10;4.05;;;;;;;8.95;100.00;101478.22;5054737;28;20120;-47
2023/01/06 07:15:41;;;;;;;8.23;4.07;;;;;;;8.94;100.00;101484.22;5054599;28;20414;-48
2023/01/06 07:18:06;;;;;;;9.13;4.85;;;;;;;8.90;100.00;101480.59;5055065;28;20021;-47
2023/01/06 07:20:33;;;;;;;10.60;5.25;;;;;;;8.84;100.00;101482.88;5054056;28;20420;-49
2023/01/06 07:22:59;;;;;;;12.18;5.32;;;;;;;8.77;100.00;101486.88;5054995;28;20029;-48
2023/01/06 07:25:24;;;;;;;11.10;4.75;;;;;;;8.72;100.00;101480.63;5055110;28;20021;-46
2023/01/06 07:27:54;;;;;;;17.17;5.15;;;;;;;8.67;100.00;101480.41;5054172;28;20104;-46
2023/01/06 07:30:20;;;;;;;10.20;5.18;;;;;;;8.65;100.00;101476.00;5054746;28;20017;-47
2023/01/06 07:32:45;;;;;;;13.80;6.10;;;;;;;8.64;100.00;101469.13;5054450;28;20054;-46
2023/01/06 07:35:10;;;;;;;9.75;5.47;;;;;;;8.62;100.00;101486.13;5053216;28;20087;-45
2023/01/06 07:37:36;;;;;;;13.10;6.07;;;;;;;8.62;100.00;101488.72;5054292;28;20086;-47
2023/01/06 07:40:01;;;;;;;11.52;6.32;;;;;;;8.62;100.00;101496.41;5054544;28;20083;-46
2023/01/06 07:42:26;;;;;;;12.15;6.45;;;;;;;8.63;100.00;101493.03;5053963;28;20025;-47
2023/01/06 07:44:51;;;;;;;13.07;6.55;;;;;;;8.62;100.00;101496.41;5054339;28;20025;-47
2023/01/06 07:47:17;;;;;;;11.70;6.13;;;;;;;8.61;100.00;101500.69;5054436;28;20025;-46
2023/01/06 07:49:42;;;;;;;12.98;6.30;;;;;;;8.62;100.00;101491.28;5053314;28;20033;-48
2023/01/06 07:52:07;;;;;;;11.07;6.53;;;;;;;8.62;100.00;101492.16;5054283;28;20017;-46
2023/01/06 07:54:33;;;;;;;10.23;6.57;;;;;;;8.63;100.00;101499.06;5053637;28;20490;-43
2023/01/06 07:56:58;;;;;;;12.73;7.15;;;;;;;8.65;100.00;101501.69;5054129;28;20060;-46
2023/01/06 07:59:23;;;;;;;12.50;6.43;;;;;;;8.64;100.00;101512.81;5054199;28;20103;-43
2023/01/06 08:01:49;;;;;;;14.75;6.85;;;;;;;8.65;100.00;101507.72;5053264;28;20032;-48
2023/01/06 08:04:14;;;;;;;13.27;7.15;;;;;;;8.65;100.00;101517.09;5053721;28;20045;-47
2023/01/06 08:06:39;;;;;;;11.23;6.15;;;;;;;8.66;100.00;101516.31;5053954;28;20108;-48
2023/01/06 08:09:05;;;;;;;17.10;6.60;;;;;;;8.69;100.00;101530.19;5053711;28;20083;-48
2023/01/06 08:11:30;;;;;;;12.27;6.68;;;;;;;8.71;100.00;101527.69;5053604;28;20044;-46
2023/01/06 08:13:55;;;;;;;11.05;6.57;;;;;;;8.75;100.00;101539.88;5054163;28;20029;-48
2023/01/06 08:16:21;;;;;;;11.43;6.15;;;;;;;8.76;100.00;101544.22;5053529;28;20021;-47
2023/01/06 08:18:46;;;;;;;11.48;6.03;;;;;;;8.80;100.00;101540.97;5053317;28;20052;-45
2023/01/06 08:21:11;;;;;;;10.80;6.57;;;;;;;8.83;100.00;101543.72;5053947;28;20078;-47
2023/01/06 08:23:37;;;;;;;10.05;5.75;;;;;;;8.87;100.00;101539.56;5053039;28;20049;-49
2023/01/06 08:26:04;;;;;;;9.10;5.85;;;;;;;8.90;100.00;101544.88;5053687;28;20471;-48
2023/01/06 08:28:30;;;;;;;12.60;6.63;;;;;;;8.94;100.00;101543.34;5053373;28;20039;-46
2023/01/06 08:30:56;;;;;;;10.95;7.65;;;;;;;8.98;100.00;101542.66;5053219;28;20024;-48
2023/01/06 08:33:23;;;;;;;10.07;7.78;;;;;;;8.98;100.00;101546.09;5053314;28;20061;-48
2023/01/06 08:35:49;;;;;;;11.30;8.50;;;;;;;9.04;100.00;101548.97;5053181;28;20100;-47
2023/01/06 08:38:14;;;;;;;15.00;9.15;;;;;;;9.06;100.00;101557.66;5052875;28;20452;-46
2023/01/06 08:40:39;;;;;;;14.82;9.32;;;;;;;9.09;100.00;101564.63;5053362;28;20029;-48
2023/01/06 08:43:04;;;;;;;15.27;9.73;;;;;;;9.12;100.00;101577.63;5053552;28;20048;-47
2023/01/06 08:45:30;;;;;;;13.15;9.15;;;;;;;9.15;100.00;101582.91;5052552;28;20029;-49
2023/01/06 08:47:55;;;;;;;11.63;8.88;;;;;;;9.17;100.00;101586.44;5053135;28;20484;-47
2023/01/06 08:50:20;;;;;;;14.20;9.70;;;;;;;9.17;100.00;101586.44;5053231;28;20039;-48
2023/01/06 08:52:46;;;;;;;16.52;11.50;;;;;;;9.19;100.00;101589.97;5052358;28;20021;-47
2023/01/06 08:55:11;;;;;;;14.57;11.77;;;;;;;9.22;100.00;101589.25;5053286;28;20021;-48
2023/01/06 08:57:36;;;;;;;16.20;12.30;;;;;;;9.28;100.00;101596.34;5052807;28;20081;-48
2023/01/06 09:00:04;;;;;;;17.38;12.13;;;;;;;9.33;100.00;101592.31;5052288;28;20025;-47
2023/01/06 09:02:30;;;;;;;18.35;12.07;;;;;;;9.35;100.00;101601.84;5052830;28;20127;-47
2023/01/06 09:04:55;;;;;;;18.45;13.05;;;;;;;9.36;100.00;101598.47;5052283;28;20128;-47
2023/01/06 09:07:21;;;;;;;18.13;13.60;;;;;;;9.37;100.00;101601.91;5052966;28;20029;-46
2023/01/06 09:09:46;;;;;;;17.05;12.48;;;;;;;9.39;100.00;101605.47;5052786;28;20140;-47
2023/01/06 09:12:11;;;;;;;18.10;13.57;;;;;;;9.39;100.00;101602.88;5052533;28;20067;-48
2023/01/06 09:14:36;;;;;;;17.27;14.15;;;;;;;9.38;100.00;101606.25;5052470;28;20108;-48
2023/01/06 09:17:02;;;;;;;16.30;14.18;;;;;;;9.35;100.00;101611.28;5052888;28;20408;-47
2023/01/06 09:19:27;;;;;;;22.00;14.30;;;;;;;9.33;100.00;101610.31;5052219;28;20070;-44
2023/01/06 09:21:52;;;;;;;18.33;14.38;;;;;;;9.32;100.00;101618.84;5052859;28;20052;-46
2023/01/06 09:24:18;;;;;;;22.67;14.60;;;;;;;9.31;100.00;101614.50;5052963;28;20465;-49
2023/01/06 09:26:43;;;;;;;21.15;13.95;;;;;;;9.27;100.00;101618.63;5052012;28;20100;-48
2023/01/06 09:29:08;;;;;;;22.85;14.55;;;;;;;9.28;100.00;101630.66;5052675;28;20056;-48
2023/01/06 09:31:34;;;;;;;18.50;14.25;;;;;;;9.31;100.00;101635.06;5052450;28;20102;-46
2023/01/06 09:33:59;;;;;;;19.92;16.20;;;;;;;9.40;100.00;101630.38;5052128;28;20061;-47
2023/01/06 09:36:24;;;;;;;23.05;16.10;;;;;;;9.56;100.00;101647.41;5052665;28;20044;-49
2023/01/06 09:38:50;;;;;;;18.60;14.73;;;;;;;9.63;100.00;101649.47;5052530;28;20388;-47
2023/01/06 09:41:33;;;;;;;22.73;15.32;;;;;;;9.72;100.00;101659.28;5052248;28;20079;-48
2023/01/06 09:44:16;;;;;;;19.38;15.35;;;;;;;9.72;100.00;101656.72;5052816;28;20033;-49
2023/01/06 09:46:45;;;;;;;21.77;14.63;;;;;;;9.71;100.00;101661.00;5052254;28;20468;-49
2023/01/06 09:49:20;;;;;;;23.27;15.30;;;;;;;9.79;100.00;101661.34;5051704;28;20407;-47
2023/01/06 09:51:46;;;;;;;21.77;14.90;;;;;;;9.97;100.00;101663.88;5052492;28;20067;-48
2023/01/06 09:54:20;;;;;;;19.45;13.75;;;;;;;10.12;100.00;101668.84;5052059;28;20448;-48
2023/01/06 09:56:52;;;;;;;17.60;12.60;;;;;;;10.19;100.00;101678.59;5051870;28;20025;-49
2023/01/06 09:59:20;;;;;;;21.50;12.98;;;;;;;10.17;100.00;101674.19;5054562;28;20045;-47
2023/01/06 10:01:48;;;;;;;19.92;12.32;;;;;;;10.15;100.00;101679.28;5055697;28;20021;-49
2023/01/06 10:04:23;;;;;;;23.02;12.70;;;;;;;10.10;100.00;101679.88;5056255;28;20036;-47
2023/01/06 10:06:54;;;;;;;19.05;12.35;;;;;;;10.06;100.00;101681.44;5056196;28;20017;-47
2023/01/06 10:09:38;;;;;;;20.23;12.93;;;;;;;10.08;100.00;101684.94;5055725;28;20043;-48
2023/01/06 10:12:22;;;;;;;19.48;11.75;;;;;;;10.02;100.00;101684.69;5056472;28;20036;-49
2023/01/06 10:15:13;;;;;;;21.83;11.50;;;;;;;10.01;100.00;101675.19;5055981;28;20025;-49
2023/01/06 10:17:54;;;;;;;20.25;11.80;;;;;;;10.12;100.00;101681.72;5055574;28;20032;-47
2023/01/06 10:20:26;;;;;;;18.65;10.82;;;;;;;10.07;100.00;101672.91;5056285;28;20063;-49
2023/01/06 10:23:05;;;;;;;21.00;11.70;;;;;;;10.02;100.00;101675.25;5055265;28;20514;-49
2023/01/06 10:25:39;;;;;;;17.50;11.27;;;;;;;9.94;100.00;101686.03;5055567;28;20078;-47
2023/01/06 10:28:12;;;;;;;23.13;10.13;;;;;;;9.88;100.00;101682.34;5055808;28;20029;-49
2023/01/06 10:30:43;;;;;;;22.67;10.90;;;;;;;9.84;100.00;101680.47;5055074;28;20025;-46
2023/01/06 10:33:26;;;;;;;20.88;11.20;;;;;;;9.86;100.00;101684.00;5056329;28;20373;-47
2023/01/06 10:35:54;;;;;;;18.88;10.35;;;;;;;9.88;100.00;101677.19;5055784;28;20021;-48
2023/01/06 10:38:40;;;;;;;23.55;10.25;;;;;;;9.88;100.00;101686.63;5054911;28;20391;-48
2023/01/06 10:41:17;;;;;;;20.90;10.40;;;;;;;9.80;100.00;101678.56;5055969;28;20059;-48
2023/01/06 10:43:42;;;;;;;19.17;9.80;;;;;;;9.81;100.00;101684.56;5054994;28;20024;-49
2023/01/06 10:46:08;;;;;;;20.50;9.27;;;;;;;9.89;100.00;101683.25;5055544;28;20028;-49
2023/01/06 10:48:34;;;;;;;18.77;9.90;;;;;;;10.15;100.00;101680.97;5055232;28;20059;-48
2023/01/06 10:51:26;;;;;;;24.88;9.00;;;;;;;10.36;100.00;101670.75;5055132;28;20021;-48
2023/01/06 10:53:53;;;;;;;22.85;9.35;;;;;;;10.75;100.00;101670.69;5045078;28;20092;-49
2023/01/06 10:56:18;;;;;;;23.52;8.70;;;;;;;11.23;98.88;101679.50;5055369;28;20349;-49
2023/01/06 10:58:47;;;;;;;17.98;7.32;;;;;;;11.59;98.21;101674.91;5054435;28;20029;-49
2023/01/06 11:01:23;;;;;;;19.25;7.05;;;;;;;11.86;95.89;101680.28;5055240;28;20384;-48
2023/01/06 11:04:08;;;;;;;20.45;7.78;;;;;;;12.24;94.42;101686.81;5055003;28;20080;-48
2023/01/06 11:06:35;;;;;;;22.60;7.35;;;;;;;12.43;89.86;101689.22;5054365;28;20029;-47
2023/01/06 11:09:22;;;;;;;16.05;6.38;;;;;;;12.42;89.30;101687.50;5055255;28;20021;-47
2023/01/06 11:11:48;;;;;;;21.85;6.68;;;;;;;12.24;88.34;101684.22;5053235;28;20035;-49
2023/01/06 11:14:16;;;;;;;15.65;6.88;;;;;;;12.21;86.84;101686.72;5055050;28;20029;-46
2023/01/06 11:16:42;;;;;;;15.30;6.00;;;;;;;12.50;86.56;101688.63;5054873;28;20025;-47
2023/01/06 11:19:22;;;;;;;19.92;6.45;;;;;;;12.63;86.05;101678.72;5054414;28;20040;-49
2023/01/06 11:21:47;;;;;;;14.45;6.85;;;;;;;12.45;84.46;101672.06;5054473;28;20485;-48
2023/01/06 11:24:17;;;;;;;15.90;6.40;;;;;;;12.26;83.71;101669.66;5054837;28;20108;-48
2023/01/06 11:26:49;;;;;;;11.90;6.75;;;;;;;12.11;83.87;101665.72;5053700;28;20377;-50
2023/01/06 11:29:24;;;;;;;14.18;7.05;;;;;;;12.15;84.67;101667.56;5054697;28;20421;-48
2023/01/06 11:31:49;;;;;;;22.50;8.02;;;;;;;12.32;84.36;101669.91;5054436;28;20112;-49